Time;durP1;ratioP1;P1;durP2;ratioP2;P2;SDS_P1;SDS_P2;PMS_P1;PMS_P2;Temp;Humidity;BMP_temperature;BMP_pressure;BME280_temperature;BME280_humidity;BME280_pressure;Samples;Min_cycle;Max_cycle;Signal;HPM_P1;HPM_P2
2022/12/24 00:01:48;;;;;;;60.47;40.53;;;7.20;99.90;;;;;;8284963;28;20191;-70
2022/12/24 00:05:49;;;;;;;54.03;36.03;;;7.20;99.90;;;;;;8277415;28;20653;-69
2022/12/24 00:09:50;;;;;;;69.40;42.27;;;7.20;99.90;;;;;;8280500;28;20351;-70
2022/12/24 00:13:50;;;;;;;58.43;38.63;;;7.20;99.90;;;;;;8296861;28;20187;-70
2022/12/24 00:17:51;;;;;;;55.73;34.60;;;7.20;99.90;;;;;;8293753;28;20205;-70
2022/12/24 00:21:52;;;;;;;43.97;28.27;;;7.10;99.90;;;;;;8297512;28;20248;-70
2022/12/24 00:25:53;;;;;;;80.17;48.17;;;7.20;99.90;;;;;;8286782;28;20200;-70
2022/12/24 00:29:54;;;;;;;70.73;43.23;;;7.10;99.90;;;;;;8296087;28;20210;-70
2022/12/24 00:33:54;;;;;;;168.93;90.20;;;7.10;99.90;;;;;;8280592;28;20213;-70
2022/12/24 00:37:55;;;;;;;165.10;87.27;;;7.10;99.90;;;;;;8283643;28;20201;-70
2022/12/24 00:41:56;;;;;;;141.93;74.40;;;7.10;99.90;;;;;;8286666;28;20186;-70
2022/12/24 00:45:58;;;;;;;69.33;44.03;;;7.10;99.90;;;;;;8303238;28;20259;-69
2022/12/24 00:49:59;;;;;;;45.53;28.37;;;7.10;99.90;;;;;;8291919;28;20210;-69
2022/12/24 00:54:00;;;;;;;32.27;22.83;;;7.10;99.90;;;;;;8286730;28;20425;-70
2022/12/24 00:58:01;;;;;;;25.90;18.63;;;7.10;99.90;;;;;;8286398;28;20285;-70
2022/12/24 01:02:02;;;;;;;24.63;17.60;;;7.10;99.90;;;;;;8288551;28;20195;-70
2022/12/24 01:06:07;;;;;;;27.80;19.83;;;7.20;99.90;;;;;;8304005;28;20276;-69
2022/12/24 01:10:08;;;;;;;39.60;28.10;;;7.20;99.90;;;;;;8283613;28;20283;-70
2022/12/24 01:14:09;;;;;;;59.40;35.00;;;7.20;99.90;;;;;;8287114;28;20214;-69
2022/12/24 01:18:10;;;;;;;44.10;26.87;;;7.20;99.90;;;;;;8298119;28;20197;-70
2022/12/24 01:22:11;;;;;;;33.33;21.33;;;7.30;99.90;;;;;;8301192;28;20198;-70
2022/12/24 01:26:12;;;;;;;24.77;17.87;;;7.30;99.90;;;;;;8304057;28;20221;-70
2022/12/24 01:30:14;;;;;;;25.07;16.50;;;7.20;99.90;;;;;;8284485;28;20190;-70
2022/12/24 01:34:15;;;;;;;23.07;16.00;;;7.10;99.90;;;;;;8301094;28;20226;-70
2022/12/24 01:38:16;;;;;;;32.67;20.13;;;6.90;99.90;;;;;;8304738;28;20257;-71
2022/12/24 01:46:39;;;;;;;23.37;16.33;;;7.00;99.90;;;;;;8296767;28;20229;-70
2022/12/24 01:50:40;;;;;;;22.37;15.93;;;7.10;99.90;;;;;;8303259;28;20182;-70
2022/12/24 01:54:46;;;;;;;22.23;14.53;;;7.10;99.90;;;;;;8299839;28;20186;-70
2022/12/24 01:58:54;;;;;;;16.30;11.20;;;7.10;99.90;;;;;;8294826;28;20439;-70
2022/12/24 02:02:55;;;;;;;13.50;8.97;;;7.20;99.90;;;;;;8285086;28;21840;-70
2022/12/24 02:06:56;;;;;;;11.27;8.40;;;7.30;99.90;;;;;;8301220;28;20207;-70
2022/12/24 02:10:57;;;;;;;9.90;7.53;;;7.40;99.90;;;;;;8285968;28;20191;-70
2022/12/24 02:14:58;;;;;;;9.73;6.97;;;7.50;99.90;;;;;;8285005;28;20183;-69
2022/12/24 02:19:28;;;;;;;8.10;5.97;;;7.70;99.90;;;;;;8302285;28;20229;-70
2022/12/24 02:24:22;;;;;;;7.07;5.03;;;7.80;99.90;;;;;;8284017;28;20269;-69
2022/12/24 02:28:42;;;;;;;6.50;4.47;;;7.90;99.90;;;;;;8254331;28;20222;-70
2022/12/24 02:33:00;;;;;;;5.80;4.53;;;8.10;99.90;;;;;;8300605;28;20202;-70
2022/12/24 02:37:11;;;;;;;5.50;3.83;;;8.20;99.90;;;;;;8301825;28;20205;-69
2022/12/24 02:42:04;;;;;;;3.37;2.57;;;8.30;99.90;;;;;;8305278;28;20191;-70
2022/12/24 02:45:56;;;;;;;4.90;3.20;;;8.40;99.90;;;;;;8303633;28;20554;-69
2022/12/24 02:50:00;;;;;;;4.10;3.10;;;8.40;99.90;;;;;;8295533;28;20247;-69
2022/12/24 02:54:01;;;;;;;4.80;3.10;;;8.50;99.90;;;;;;8282801;28;20204;-69
2022/12/24 02:58:10;;;;;;;3.93;2.50;;;8.60;99.90;;;;;;8287266;28;20194;-70
2022/12/24 03:02:13;;;;;;;3.63;2.30;;;8.70;99.90;;;;;;8281246;28;20204;-69
2022/12/24 03:06:32;;;;;;;3.40;1.80;;;8.80;99.90;;;;;;8280808;28;20193;-68
2022/12/24 03:10:46;;;;;;;4.57;2.10;;;8.80;99.90;;;;;;8283875;28;20191;-68
2022/12/24 03:14:48;;;;;;;2.10;1.80;;;8.90;99.90;;;;;;8296079;28;20214;-69
2022/12/24 03:18:51;;;;;;;3.20;1.77;;;9.00;99.90;;;;;;8301318;28;20460;-69
2022/12/24 03:22:52;;;;;;;2.30;1.57;;;9.00;99.90;;;;;;8276893;28;20400;-68
2022/12/24 03:26:53;;;;;;;4.60;2.23;;;9.00;99.90;;;;;;8294006;28;20203;-68
2022/12/24 03:30:54;;;;;;;3.70;1.83;;;9.10;99.90;;;;;;8287861;28;20195;-68
2022/12/24 03:34:55;;;;;;;2.87;1.57;;;9.10;99.90;;;;;;8281532;28;20229;-70
2022/12/24 03:38:56;;;;;;;4.93;1.80;;;9.10;99.90;;;;;;8301202;28;20195;-68
2022/12/24 03:42:56;;;;;;;4.30;1.87;;;9.10;99.90;;;;;;8279277;28;20187;-70
2022/12/24 03:46:57;;;;;;;4.17;2.10;;;9.10;99.90;;;;;;8283790;28;20207;-69
2022/12/24 03:50:58;;;;;;;2.63;1.40;;;9.10;99.90;;;;;;8283829;28;20183;-68
2022/12/24 03:54:59;;;;;;;3.10;1.67;;;9.20;99.90;;;;;;8301662;28;20226;-68
2022/12/24 03:59:00;;;;;;;5.57;1.90;;;9.20;99.90;;;;;;8283500;28;20206;-67
2022/12/24 04:03:00;;;;;;;4.33;1.73;;;9.30;99.90;;;;;;8283497;28;20192;-68
2022/12/24 04:07:01;;;;;;;3.07;1.47;;;9.30;99.90;;;;;;8298677;28;20212;-68
2022/12/24 04:11:07;;;;;;;2.70;1.80;;;9.30;99.90;;;;;;8297562;28;20180;-69
2022/12/24 04:15:09;;;;;;;2.80;1.47;;;9.20;99.90;;;;;;8280471;28;20219;-68
2022/12/24 04:19:10;;;;;;;3.90;2.03;;;9.30;99.90;;;;;;8301202;28;20197;-69
2022/12/24 04:23:10;;;;;;;4.50;1.63;;;9.30;99.90;;;;;;8298524;28;20194;-68
2022/12/24 04:27:13;;;;;;;5.63;2.43;;;9.20;99.90;;;;;;8285130;28;20242;-70
2022/12/24 04:31:16;;;;;;;5.70;2.10;;;9.20;99.90;;;;;;8280847;28;20262;-68
2022/12/24 04:35:17;;;;;;;5.17;1.80;;;9.20;99.90;;;;;;8298375;28;20225;-68
2022/12/24 04:39:17;;;;;;;3.73;2.10;;;9.20;99.90;;;;;;8288423;28;20196;-69
2022/12/24 04:43:19;;;;;;;7.03;1.60;;;9.20;99.90;;;;;;8296513;28;20203;-68
2022/12/24 04:47:20;;;;;;;5.33;1.90;;;9.30;99.90;;;;;;8285835;28;20305;-68
2022/12/24 04:51:21;;;;;;;6.57;2.70;;;9.30;99.90;;;;;;8299529;28;20191;-69
2022/12/24 04:55:22;;;;;;;3.73;2.03;;;9.30;99.90;;;;;;8281932;28;20497;-69
2022/12/24 04:59:23;;;;;;;6.27;2.30;;;9.30;99.90;;;;;;8284164;28;20560;-68
2022/12/24 05:03:24;;;;;;;5.67;2.50;;;9.30;99.90;;;;;;8297781;28;20204;-69
2022/12/24 05:07:24;;;;;;;8.80;2.57;;;9.30;99.90;;;;;;8280367;28;20249;-68
2022/12/24 05:11:26;;;;;;;8.10;1.70;;;9.30;99.90;;;;;;8299477;28;20206;-69
2022/12/24 05:15:26;;;;;;;4.67;2.07;;;9.30;99.90;;;;;;8293971;28;20187;-68
2022/12/24 05:19:27;;;;;;;5.20;1.90;;;9.30;99.90;;;;;;8298751;28;20203;-68
2022/12/24 05:27:47;;;;;;;9.33;2.20;;;9.40;99.90;;;;;;8301318;28;20226;-68
2022/12/24 05:31:49;;;;;;;6.27;2.20;;;9.30;99.90;;;;;;8303011;28;20192;-69
2022/12/24 05:35:51;;;;;;;6.03;2.10;;;9.40;99.90;;;;;;8298713;28;20222;-69
2022/12/24 05:39:52;;;;;;;9.40;2.30;;;9.40;99.90;;;;;;8306539;28;20195;-69
2022/12/24 05:43:53;;;;;;;6.47;2.17;;;9.30;99.90;;;;;;8298780;28;20198;-68
2022/12/24 05:47:53;;;;;;;5.07;1.77;;;9.30;99.90;;;;;;8303771;28;20208;-70
2022/12/24 05:51:54;;;;;;;3.60;1.80;;;9.30;99.90;;;;;;8287865;28;20232;-68
2022/12/24 05:56:05;;;;;;;4.70;2.10;;;9.30;99.90;;;;;;8299962;28;20184;-69
2022/12/24 06:00:07;;;;;;;4.73;1.87;;;9.30;99.90;;;;;;8301829;28;20251;-67
2022/12/24 06:04:07;;;;;;;4.93;1.67;;;9.30;99.90;;;;;;8282692;28;20191;-68
2022/12/24 06:08:08;;;;;;;4.57;1.70;;;9.20;99.90;;;;;;8285710;28;20239;-69
2022/12/24 06:12:09;;;;;;;3.03;1.80;;;9.30;99.90;;;;;;8302647;28;20265;-69
2022/12/24 06:16:17;;;;;;;5.87;1.90;;;9.30;99.90;;;;;;8300617;28;20183;-68
2022/12/24 06:20:18;;;;;;;5.27;1.50;;;9.20;99.90;;;;;;8294745;28;20196;-69
2022/12/24 06:24:19;;;;;;;2.80;1.60;;;9.10;99.90;;;;;;8297637;28;20252;-68
2022/12/24 06:28:20;;;;;;;7.07;1.77;;;9.10;99.90;;;;;;8300570;28;20206;-68
2022/12/24 06:32:21;;;;;;;4.60;1.90;;;9.10;99.90;;;;;;8281777;28;20333;-67
2022/12/24 06:36:23;;;;;;;5.63;1.67;;;9.10;99.90;;;;;;8296902;28;20420;-68
2022/12/24 06:40:25;;;;;;;4.90;1.67;;;9.10;99.90;;;;;;8294267;28;20213;-69
2022/12/24 06:44:26;;;;;;;3.43;1.47;;;9.10;99.90;;;;;;8280786;28;20255;-71
2022/12/24 06:48:27;;;;;;;3.10;1.60;;;9.10;99.90;;;;;;8285699;28;20229;-71
2022/12/24 06:52:28;;;;;;;4.40;1.70;;;9.10;99.90;;;;;;8303296;28;20651;-71
2022/12/24 06:56:29;;;;;;;3.03;1.73;;;9.00;99.90;;;;;;8297100;28;20186;-71
2022/12/24 07:00:30;;;;;;;3.80;1.70;;;9.00;99.90;;;;;;8299053;28;20207;-71
2022/12/24 07:04:30;;;;;;;4.83;1.70;;;9.00;99.90;;;;;;8279638;28;20191;-73
2022/12/24 07:08:35;;;;;;;2.67;1.60;;;9.00;99.90;;;;;;8280127;28;20230;-72
2022/12/24 07:12:36;;;;;;;4.67;1.97;;;9.00;99.90;;;;;;8286789;28;20274;-73
2022/12/24 07:16:37;;;;;;;2.57;1.50;;;9.00;99.90;;;;;;8288017;28;20179;-71
2022/12/24 07:20:38;;;;;;;4.80;1.83;;;9.00;99.90;;;;;;8299993;28;20624;-72
2022/12/24 07:24:39;;;;;;;2.13;1.53;;;8.90;99.90;;;;;;8300445;28;20213;-70
2022/12/24 07:28:40;;;;;;;3.50;1.57;;;8.90;99.90;;;;;;8300378;28;20350;-71
2022/12/24 07:32:40;;;;;;;2.97;1.87;;;8.80;99.90;;;;;;8282610;28;20561;-70
2022/12/24 07:36:41;;;;;;;3.27;1.67;;;8.80;99.90;;;;;;8277946;28;20194;-71
2022/12/24 07:40:42;;;;;;;4.17;1.83;;;8.80;99.90;;;;;;8283848;28;20186;-70
2022/12/24 07:44:43;;;;;;;3.80;1.70;;;8.80;99.90;;;;;;8297586;28;20190;-71
2022/12/24 07:48:44;;;;;;;2.70;1.70;;;8.80;99.90;;;;;;8294840;28;20218;-71
2022/12/24 07:52:45;;;;;;;4.93;3.00;;;8.70;99.90;;;;;;8278617;28;20194;-71
2022/12/24 07:56:45;;;;;;;3.67;3.30;;;8.70;99.90;;;;;;8300300;28;20262;-72
2022/12/24 08:00:46;;;;;;;3.30;1.63;;;8.70;99.90;;;;;;8287120;28;20217;-72
2022/12/24 08:04:47;;;;;;;1.63;0.70;;;8.60;99.90;;;;;;8294806;28;20200;-72
2022/12/24 08:13:45;;;;;;;2.13;1.77;;;8.70;99.90;;;;;;8298426;28;20221;-69
2022/12/24 08:17:46;;;;;;;3.87;1.43;;;8.60;99.90;;;;;;8286746;28;20183;-71
2022/12/24 08:21:47;;;;;;;2.37;2.00;;;8.60;99.90;;;;;;8295897;28;20183;-72
2022/12/24 08:25:48;;;;;;;1.80;1.70;;;8.50;99.90;;;;;;8295498;28;20539;-71
2022/12/24 08:29:49;;;;;;;2.40;2.03;;;8.50;99.90;;;;;;8300115;28;20218;-71
2022/12/24 08:33:50;;;;;;;4.57;1.93;;;8.50;99.90;;;;;;8290929;28;20213;-72
2022/12/24 08:37:50;;;;;;;2.60;2.20;;;8.40;99.90;;;;;;8286454;28;20208;-70
2022/12/24 08:41:51;;;;;;;2.07;1.40;;;8.40;99.90;;;;;;8298993;28;20268;-71
2022/12/24 08:45:52;;;;;;;1.47;1.37;;;8.40;99.90;;;;;;8283161;28;20293;-70
2022/12/24 08:49:53;;;;;;;1.57;1.40;;;8.40;99.90;;;;;;8286938;28;20293;-71
2022/12/24 08:53:54;;;;;;;1.03;0.93;;;8.40;99.90;;;;;;8296116;28;20174;-71
2022/12/24 08:57:55;;;;;;;1.53;1.10;;;8.40;99.90;;;;;;8298066;28;20186;-71
2022/12/24 09:01:56;;;;;;;1.00;0.80;;;8.40;99.90;;;;;;8289402;28;20190;-70
2022/12/24 09:05:56;;;;;;;1.17;0.70;;;8.40;99.90;;;;;;8303669;28;20183;-71
2022/12/24 09:09:57;;;;;;;0.70;0.50;;;8.40;99.90;;;;;;8303002;28;20214;-72
2022/12/24 09:13:58;;;;;;;0.67;0.67;;;8.40;99.90;;;;;;8304326;28;20189;-72
2022/12/24 09:18:02;;;;;;;2.73;1.33;;;8.50;99.90;;;;;;8302707;28;20190;-72
2022/12/24 09:22:03;;;;;;;4.13;1.97;;;8.50;99.90;;;;;;8289196;28;20191;-73
2022/12/24 09:26:09;;;;;;;4.00;1.97;;;8.60;99.90;;;;;;8286031;28;20213;-73
2022/12/24 09:30:11;;;;;;;7.17;2.70;;;8.70;99.90;;;;;;8290065;28;20212;-71
2022/12/24 09:34:12;;;;;;;9.30;3.10;;;8.80;99.90;;;;;;8284631;28;20210;-74
2022/12/24 09:38:13;;;;;;;7.27;2.73;;;8.80;99.90;;;;;;8302839;28;20209;-75
2022/12/24 09:42:49;;;;;;;5.23;2.30;;;8.80;99.90;;;;;;8291607;28;20197;-71
2022/12/24 09:46:52;;;;;;;7.60;2.63;;;8.80;99.90;;;;;;8281494;28;20290;-71
2022/12/24 09:51:10;;;;;;;10.33;2.80;;;8.80;99.90;;;;;;8284140;28;20179;-75
2022/12/24 09:55:18;;;;;;;7.13;2.60;;;8.80;99.90;;;;;;8285740;28;20187;-72
2022/12/24 09:59:21;;;;;;;4.83;2.57;;;8.80;99.90;;;;;;8283649;28;20215;-72
2022/12/24 10:03:22;;;;;;;6.53;2.47;;;8.90;99.90;;;;;;8305791;28;20265;-72
2022/12/24 10:07:50;;;;;;;7.00;2.43;;;8.90;99.90;;;;;;8290707;28;20302;-72
2022/12/24 10:12:08;;;;;;;12.47;2.67;;;8.90;99.90;;;;;;8286069;28;20212;-71
2022/12/24 10:16:21;;;;;;;7.43;2.73;;;9.00;99.90;;;;;;8282193;28;20191;-70
2022/12/24 10:20:47;;;;;;;9.20;2.33;;;9.00;99.90;;;;;;8283925;28;20196;-69
2022/12/24 10:24:56;;;;;;;7.93;2.27;;;9.00;99.90;;;;;;8297447;28;20197;-70
2022/12/24 10:29:02;;;;;;;11.53;3.30;;;8.90;99.90;;;;;;8285955;28;20223;-71
2022/12/24 10:33:17;;;;;;;8.37;2.50;;;8.90;99.90;;;;;;8304466;28;20257;-71
2022/12/24 10:37:23;;;;;;;6.73;2.23;;;8.90;99.90;;;;;;8285003;28;20199;-69
2022/12/24 10:41:25;;;;;;;6.47;2.60;;;9.00;99.90;;;;;;8304506;28;20192;-71
2022/12/24 10:45:38;;;;;;;7.53;2.33;;;9.00;99.90;;;;;;8299813;28;20267;-71
2022/12/24 10:49:42;;;;;;;8.53;2.50;;;9.10;99.90;;;;;;8302373;28;20231;-70
2022/12/24 10:53:50;;;;;;;8.93;2.37;;;9.10;99.90;;;;;;8302878;28;20257;-69
2022/12/24 10:58:04;;;;;;;6.97;2.00;;;9.20;99.90;;;;;;8288211;28;20704;-70
2022/12/24 11:02:32;;;;;;;6.93;2.20;;;9.20;99.90;;;;;;8285383;28;20188;-70
2022/12/24 11:06:50;;;;;;;8.47;2.57;;;9.30;99.90;;;;;;8295059;28;20203;-70
2022/12/24 11:11:10;;;;;;;10.93;3.03;;;9.30;99.90;;;;;;8297953;28;20211;-69
2022/12/24 11:15:18;;;;;;;10.30;2.77;;;9.30;99.90;;;;;;8296644;28;20400;-71
2022/12/24 11:19:31;;;;;;;8.70;2.50;;;9.40;99.90;;;;;;8281814;28;20200;-71
2022/12/24 11:23:32;;;;;;;11.03;3.00;;;9.40;99.90;;;;;;8297210;28;20204;-72
2022/12/24 11:27:43;;;;;;;9.57;2.70;;;9.50;99.90;;;;;;8296649;28;20251;-69
2022/12/24 11:31:44;;;;;;;6.23;2.20;;;9.50;99.90;;;;;;8277176;28;20201;-72
2022/12/24 11:35:52;;;;;;;9.07;2.73;;;9.50;99.90;;;;;;8286058;28;20426;-71
2022/12/24 11:39:57;;;;;;;8.30;2.37;;;9.60;99.90;;;;;;8300602;28;20193;-69
2022/12/24 11:44:07;;;;;;;7.17;2.27;;;9.60;99.90;;;;;;8264939;28;20592;-70
2022/12/24 11:48:24;;;;;;;7.43;2.50;;;9.50;99.90;;;;;;8288003;28;20271;-71
2022/12/24 11:52:27;;;;;;;10.33;1.97;;;9.50;99.90;;;;;;8278496;28;20260;-72
2022/12/24 11:56:34;;;;;;;6.83;2.10;;;9.60;99.90;;;;;;8281493;28;20349;-73
2022/12/24 12:00:36;;;;;;;7.30;2.17;;;9.60;99.90;;;;;;8302677;28;20196;-72
2022/12/24 12:04:39;;;;;;;8.40;2.77;;;9.60;99.90;;;;;;8300527;28;20308;-72
2022/12/24 12:08:41;;;;;;;7.53;2.40;;;9.70;99.90;;;;;;8281577;28;20221;-72
2022/12/24 12:12:45;;;;;;;9.20;2.53;;;9.80;99.90;;;;;;8289178;28;20193;-72
2022/12/24 12:17:02;;;;;;;4.80;1.80;;;9.80;99.90;;;;;;8294480;28;20187;-72
2022/12/24 12:21:08;;;;;;;8.67;2.10;;;9.80;99.90;;;;;;8297678;28;20183;-70
2022/12/24 12:25:32;;;;;;;9.50;2.57;;;9.60;99.90;;;;;;8300673;28;20257;-71
2022/12/24 12:29:38;;;;;;;10.43;1.93;;;9.50;99.90;;;;;;8281519;28;20219;-71
2022/12/24 12:33:55;;;;;;;4.63;1.60;;;9.50;99.90;;;;;;8303123;28;20217;-70
2022/12/24 12:38:02;;;;;;;8.30;2.53;;;9.50;99.90;;;;;;8311030;28;20397;-70
2022/12/24 12:42:15;;;;;;;8.67;2.67;;;9.60;99.90;;;;;;8291305;28;20196;-69
2022/12/24 12:46:35;;;;;;;6.60;1.87;;;9.70;99.90;;;;;;8311421;28;20267;-72
2022/12/24 12:50:38;;;;;;;9.97;1.67;;;9.80;99.90;;;;;;8287312;28;20228;-71
2022/12/24 12:54:48;;;;;;;10.50;2.13;;;9.90;99.90;;;;;;8302816;28;20199;-69
2022/12/24 12:59:31;;;;;;;8.70;2.17;;;9.80;99.90;;;;;;8310446;28;20585;-70
2022/12/24 13:03:42;;;;;;;7.27;1.73;;;9.80;99.90;;;;;;8306678;28;20203;-69
2022/12/24 13:08:34;;;;;;;7.03;1.73;;;9.70;98.00;;;;;;8291368;28;20221;-69
2022/12/24 13:12:44;;;;;;;8.50;2.13;;;9.60;99.90;;;;;;8309422;28;20184;-69
2022/12/24 13:17:25;;;;;;;7.90;2.40;;;9.40;99.90;;;;;;8288971;28;20191;-69
2022/12/24 13:21:28;;;;;;;6.23;2.00;;;9.30;99.90;;;;;;8286065;28;20239;-70
2022/12/24 13:25:39;;;;;;;10.57;3.60;;;9.30;99.90;;;;;;8303443;28;20183;-70
2022/12/24 13:29:53;;;;;;;6.43;1.80;;;9.30;99.90;;;;;;8294844;28;20327;-73
2022/12/24 13:33:56;;;;;;;7.60;1.97;;;9.30;99.90;;;;;;8289879;28;20220;-72
2022/12/24 13:38:26;;;;;;;11.37;2.23;;;9.30;99.90;;;;;;8285419;28;20305;-72
2022/12/24 13:43:05;;;;;;;11.80;2.03;;;9.30;99.90;;;;;;8281773;28;20188;-71
2022/12/24 13:47:12;;;;;;;8.73;2.10;;;9.30;99.90;;;;;;8301037;28;20208;-74
2022/12/24 13:51:27;;;;;;;9.03;2.10;;;9.30;99.90;;;;;;8285394;28;20198;-71
2022/12/24 13:55:29;;;;;;;6.90;1.83;;;9.20;99.90;;;;;;8293543;28;20195;-71
2022/12/24 13:59:38;;;;;;;7.40;2.13;;;9.10;99.90;;;;;;8294266;28;20194;-71
2022/12/24 14:03:54;;;;;;;10.30;2.27;;;9.10;99.90;;;;;;8280184;28;20188;-71
2022/12/24 14:07:57;;;;;;;7.20;2.77;;;9.00;99.90;;;;;;8300450;28;20309;-71
2022/12/24 14:11:58;;;;;;;12.83;2.63;;;9.00;99.90;;;;;;8283337;28;20198;-72
2022/12/24 14:16:06;;;;;;;9.17;2.50;;;9.10;99.90;;;;;;8300140;28;20186;-71
2022/12/24 14:20:08;;;;;;;8.33;2.40;;;9.00;99.90;;;;;;8283651;28;20191;-71
2022/12/24 14:24:20;;;;;;;8.17;2.40;;;8.90;99.90;;;;;;8301917;28;20254;-71
2022/12/24 14:28:28;;;;;;;10.37;2.77;;;8.80;99.90;;;;;;8299098;28;20265;-72
2022/12/24 14:32:38;;;;;;;6.17;2.23;;;8.80;99.90;;;;;;8295835;28;20212;-74
2022/12/24 14:36:43;;;;;;;11.23;2.30;;;8.80;99.90;;;;;;8273723;28;20200;-74
2022/12/24 14:41:05;;;;;;;5.43;2.23;;;8.80;99.90;;;;;;8298394;28;20193;-72
2022/12/24 14:45:40;;;;;;;7.90;2.17;;;8.80;99.90;;;;;;8299593;28;20200;-72
2022/12/24 14:49:50;;;;;;;13.47;3.07;;;8.70;99.90;;;;;;8296994;28;20543;-72
2022/12/24 14:54:05;;;;;;;9.60;2.43;;;8.60;99.90;;;;;;8300701;28;20192;-71
2022/12/24 14:58:35;;;;;;;7.87;2.40;;;8.60;99.90;;;;;;8284257;28;20187;-72
2022/12/24 15:02:42;;;;;;;8.87;2.17;;;8.50;99.90;;;;;;8297233;28;20189;-72
2022/12/24 15:06:54;;;;;;;11.73;2.67;;;8.50;99.90;;;;;;8305488;28;20190;-72
2022/12/24 15:11:00;;;;;;;13.53;2.27;;;8.50;99.90;;;;;;8294730;28;20188;-72
2022/12/24 15:15:02;;;;;;;6.33;2.53;;;8.50;99.90;;;;;;8296797;28;20183;-71
2022/12/24 15:19:06;;;;;;;8.77;3.23;;;8.30;99.90;;;;;;8297354;28;20190;-69
2022/12/24 15:23:18;;;;;;;16.90;7.53;;;8.20;99.90;;;;;;8299229;28;20360;-69
2022/12/24 15:27:24;;;;;;;7.70;2.80;;;8.10;99.90;;;;;;8300973;28;20217;-70
2022/12/24 15:31:27;;;;;;;8.27;3.30;;;8.10;99.90;;;;;;8303577;28;20213;-69
2022/12/24 15:35:33;;;;;;;36.87;16.47;;;8.00;99.90;;;;;;8281898;28;20241;-69
2022/12/24 15:39:36;;;;;;;27.63;18.60;;;7.90;99.90;;;;;;8297360;28;20191;-69
2022/12/24 15:43:39;;;;;;;9.43;4.73;;;7.80;99.90;;;;;;8297697;28;20590;-69
2022/12/24 15:48:07;;;;;;;9.97;3.70;;;7.80;99.90;;;;;;8297297;28;20202;-69
2022/12/24 15:52:11;;;;;;;8.53;3.17;;;7.70;99.90;;;;;;8280241;28;20178;-69
2022/12/24 15:56:29;;;;;;;10.07;2.93;;;7.70;99.90;;;;;;8281171;28;20187;-69
2022/12/24 16:00:31;;;;;;;8.87;2.90;;;7.70;99.90;;;;;;8297679;28;20263;-69
2022/12/24 16:04:32;;;;;;;8.73;3.53;;;7.80;99.90;;;;;;8280812;28;20252;-69
2022/12/24 16:08:40;;;;;;;17.27;5.87;;;7.80;99.90;;;;;;8279361;28;20318;-69
2022/12/24 16:12:41;;;;;;;29.60;9.20;;;7.70;99.90;;;;;;8298228;28;20191;-69
2022/12/24 16:16:50;;;;;;;29.50;9.13;;;7.60;99.90;;;;;;8298737;28;20210;-69
2022/12/24 16:20:54;;;;;;;21.27;8.13;;;7.60;99.90;;;;;;8296705;28;20218;-69
2022/12/24 16:24:55;;;;;;;19.73;7.03;;;7.60;99.90;;;;;;8298087;28;20185;-69
2022/12/24 16:28:56;;;;;;;18.10;6.57;;;7.60;99.90;;;;;;8280026;28;20207;-69
2022/12/24 16:32:57;;;;;;;22.43;7.83;;;7.70;99.90;;;;;;8295895;28;20210;-69
2022/12/24 16:36:59;;;;;;;20.10;7.70;;;7.80;99.90;;;;;;8295924;28;20228;-68
2022/12/24 16:41:00;;;;;;;37.00;10.83;;;7.80;99.90;;;;;;8294166;28;20274;-68
2022/12/24 16:45:01;;;;;;;41.83;17.03;;;8.00;99.90;;;;;;8280596;28;20249;-69
2022/12/24 16:49:02;;;;;;;50.03;17.63;;;8.10;99.90;;;;;;8280972;28;20210;-68
2022/12/24 16:53:02;;;;;;;9.70;4.10;;;8.10;99.90;;;;;;8293725;28;20187;-69
2022/12/24 16:57:03;;;;;;;16.13;5.90;;;8.10;99.90;;;;;;8296190;28;20203;-68
2022/12/24 17:01:08;;;;;;;16.67;8.13;;;8.10;99.90;;;;;;8286494;28;20190;-69
2022/12/24 17:05:10;;;;;;;9.23;4.27;;;8.10;99.90;;;;;;8276730;28;20237;-68
2022/12/24 17:09:11;;;;;;;13.37;5.37;;;8.10;99.90;;;;;;8279559;28;20219;-68
2022/12/24 17:13:12;;;;;;;10.83;3.77;;;8.10;99.90;;;;;;8296000;28;20187;-68
2022/12/24 17:17:26;;;;;;;10.23;4.40;;;8.10;99.90;;;;;;8280086;28;20184;-68
2022/12/24 17:21:27;;;;;;;11.17;3.70;;;8.20;99.90;;;;;;8302127;28;20191;-69
2022/12/24 17:25:28;;;;;;;8.40;3.80;;;8.20;99.90;;;;;;8285817;28;20301;-69
2022/12/24 17:29:28;;;;;;;11.23;5.10;;;8.20;99.90;;;;;;8291351;28;20206;-69
2022/12/24 17:33:29;;;;;;;9.67;4.27;;;8.30;99.90;;;;;;8287677;28;20300;-69
2022/12/24 17:37:30;;;;;;;20.77;9.70;;;8.30;99.90;;;;;;8301711;28;20194;-69
2022/12/24 17:41:31;;;;;;;15.50;6.80;;;8.40;99.90;;;;;;8304271;28;20194;-69
2022/12/24 17:45:32;;;;;;;15.90;6.43;;;8.30;99.90;;;;;;8284600;28;20368;-68
2022/12/24 17:49:33;;;;;;;6.50;3.30;;;8.30;99.90;;;;;;8301555;28;20332;-68
2022/12/24 17:53:35;;;;;;;6.83;2.73;;;8.30;99.90;;;;;;8298531;28;20198;-68
2022/12/24 17:57:36;;;;;;;7.80;2.90;;;8.30;99.90;;;;;;8278631;28;20186;-68
2022/12/24 18:01:37;;;;;;;8.00;2.83;;;8.30;99.90;;;;;;8275958;28;20188;-70
2022/12/24 18:05:37;;;;;;;4.43;2.10;;;8.30;99.90;;;;;;8301714;28;20191;-68
2022/12/24 18:09:38;;;;;;;5.70;2.23;;;8.30;99.90;;;;;;8287566;28;20210;-69
2022/12/24 18:13:40;;;;;;;4.53;2.00;;;8.30;99.90;;;;;;8287900;28;20191;-69
2022/12/24 18:17:41;;;;;;;9.00;2.23;;;8.30;99.90;;;;;;8301578;28;20232;-69
2022/12/24 18:21:42;;;;;;;9.70;2.33;;;8.20;99.90;;;;;;8279759;28;20196;-69
2022/12/24 18:25:43;;;;;;;3.87;1.33;;;8.20;99.90;;;;;;8308161;28;20198;-69
2022/12/24 18:29:44;;;;;;;7.53;1.73;;;8.30;99.90;;;;;;8295770;28;20198;-69
2022/12/24 18:33:46;;;;;;;17.63;5.60;;;8.20;99.90;;;;;;8289293;28;20218;-69
2022/12/24 18:37:48;;;;;;;214.17;49.47;;;8.20;99.90;;;;;;8283104;28;20203;-69
2022/12/24 18:41:49;;;;;;;29.03;8.87;;;8.10;99.90;;;;;;8303052;28;20186;-69
2022/12/24 18:45:50;;;;;;;126.03;26.43;;;8.10;99.90;;;;;;8298535;28;20182;-69
2022/12/24 18:49:51;;;;;;;41.57;10.63;;;8.00;99.90;;;;;;8302908;28;20237;-68
2022/12/24 18:53:52;;;;;;;17.90;6.73;;;7.90;99.90;;;;;;8302915;28;20299;-69
2022/12/24 18:57:53;;;;;;;6.80;2.57;;;7.90;99.90;;;;;;8301228;28;20187;-69
2022/12/24 19:01:53;;;;;;;7.77;2.30;;;7.80;99.90;;;;;;8281498;28;20201;-69
2022/12/24 19:06:00;;;;;;;7.47;2.80;;;7.80;99.90;;;;;;8283848;28;20272;-69
2022/12/24 19:10:02;;;;;;;6.10;2.20;;;7.80;99.90;;;;;;8300086;28;20214;-69
2022/12/24 19:14:04;;;;;;;4.53;2.30;;;7.80;99.90;;;;;;8283504;28;20187;-69
2022/12/24 19:18:05;;;;;;;4.57;2.47;;;7.80;99.90;;;;;;8294002;28;20190;-69
2022/12/24 19:22:06;;;;;;;5.30;2.27;;;7.70;99.90;;;;;;8279879;28;20207;-69
2022/12/24 19:26:09;;;;;;;3.83;1.60;;;7.70;99.90;;;;;;8286796;28;20295;-69
2022/12/24 19:30:10;;;;;;;4.77;2.20;;;7.50;99.90;;;;;;8300758;28;20217;-69
2022/12/24 19:34:11;;;;;;;12.73;6.07;;;7.30;99.90;;;;;;8298468;28;20302;-69
2022/12/24 19:38:11;;;;;;;13.17;6.93;;;7.10;99.90;;;;;;8282013;28;20195;-69
2022/12/24 19:42:12;;;;;;;12.37;6.83;;;6.80;99.90;;;;;;8300195;28;20190;-69
2022/12/24 19:46:16;;;;;;;6.57;2.90;;;6.70;99.90;;;;;;8284413;28;20187;-69
2022/12/24 19:50:17;;;;;;;7.87;2.87;;;6.60;99.90;;;;;;8297823;28;20207;-69
2022/12/24 19:54:18;;;;;;;5.47;3.03;;;6.50;99.90;;;;;;8294767;28;20191;-69
2022/12/24 19:58:19;;;;;;;4.43;2.40;;;6.40;99.90;;;;;;8302077;28;20190;-68
2022/12/24 20:02:20;;;;;;;4.93;1.90;;;6.30;99.90;;;;;;8284272;28;20198;-69
2022/12/24 20:06:25;;;;;;;3.27;1.87;;;6.30;99.90;;;;;;8278164;28;20205;-69
2022/12/24 20:10:26;;;;;;;6.20;2.70;;;6.30;99.90;;;;;;8295038;28;20211;-69
2022/12/24 20:14:27;;;;;;;5.47;2.43;;;6.20;99.90;;;;;;8296798;28;20191;-69
2022/12/24 20:18:28;;;;;;;7.57;2.63;;;6.10;99.90;;;;;;8286635;28;20610;-68
2022/12/24 20:22:29;;;;;;;3.47;2.50;;;6.00;99.90;;;;;;8302128;28;20190;-69
2022/12/24 20:26:30;;;;;;;4.03;2.10;;;6.00;99.90;;;;;;8277026;28;20194;-69
2022/12/24 20:30:34;;;;;;;3.87;1.90;;;6.00;99.90;;;;;;8294802;28;20278;-69
2022/12/24 20:34:35;;;;;;;3.23;1.73;;;6.00;99.90;;;;;;8278531;28;20214;-69
2022/12/24 20:38:37;;;;;;;4.60;2.13;;;6.00;99.90;;;;;;8280064;28;20191;-69
2022/12/24 20:42:38;;;;;;;3.17;1.90;;;6.20;99.90;;;;;;8281176;28;20324;-69
2022/12/24 20:46:39;;;;;;;4.97;2.40;;;6.30;99.90;;;;;;8284212;28;20192;-69
2022/12/24 20:50:40;;;;;;;3.20;1.90;;;6.30;99.90;;;;;;8300241;28;20207;-68
2022/12/24 20:54:41;;;;;;;4.67;2.23;;;6.40;99.90;;;;;;8289539;28;20190;-69
2022/12/24 20:58:42;;;;;;;5.63;2.50;;;6.40;99.90;;;;;;8305488;28;20228;-69
2022/12/24 21:02:43;;;;;;;4.13;2.30;;;6.50;99.90;;;;;;8303920;28;20197;-69
2022/12/24 21:06:44;;;;;;;4.27;2.30;;;6.50;99.90;;;;;;8309607;28;20187;-69
2022/12/24 21:10:46;;;;;;;3.10;2.13;;;6.60;99.90;;;;;;8290411;28;20267;-69
2022/12/24 21:14:47;;;;;;;5.30;2.00;;;6.70;99.90;;;;;;8287237;28;20188;-69
2022/12/24 21:18:48;;;;;;;3.80;1.77;;;6.80;99.90;;;;;;8304026;28;20189;-69
2022/12/24 21:22:50;;;;;;;4.30;2.80;;;6.80;99.90;;;;;;8303328;28;20210;-69
2022/12/24 21:26:50;;;;;;;7.53;2.90;;;6.80;99.90;;;;;;8283087;28;20190;-69
2022/12/24 21:30:51;;;;;;;3.70;2.57;;;6.90;99.90;;;;;;8308446;28;20249;-69
2022/12/24 21:34:52;;;;;;;7.83;2.63;;;7.00;99.90;;;;;;8288622;28;20940;-69
2022/12/24 21:38:53;;;;;;;5.00;2.50;;;7.10;99.90;;;;;;8301519;28;20223;-69